sensor_id;sensor_type;location;lat;lon;timestamp;temperature;humidity
18511;DHT22;9384;48.044;11.616;2022-09-12T01:41:48;8.50;99.90
18511;DHT22;9384;48.044;11.616;2022-09-12T01:44:26;8.60;99.90
18511;DHT22;9384;48.044;11.616;2022-09-12T01:47:02;8.60;99.90
18511;DHT22;9384;48.044;11.616;2022-09-12T01:49:37;8.60;99.90
18511;DHT22;9384;48.044;11.616;2022-09-12T01:52:10;8.70;99.90
18511;DHT22;9384;48.044;11.616;2022-09-12T01:54:40;8.60;99.90
18511;DHT22;9384;48.044;11.616;2022-09-12T01:59:41;8.40;99.90
18511;DHT22;9384;48.044;11.616;2022-09-12T02:02:14;8.30;99.90
18511;DHT22;9384;48.044;11.616;2022-09-12T02:04:44;8.20;99.90
18511;DHT22;9384;48.044;11.616;2022-09-12T02:07:17;8.30;99.90
18511;DHT22;9384;48.044;11.616;2022-09-12T02:09:49;8.20;99.90
18511;DHT22;9384;48.044;11.616;2022-09-12T02:12:22;8.30;99.90
18511;DHT22;9384;48.044;11.616;2022-09-12T02:14:53;8.20;99.90
18511;DHT22;9384;48.044;11.616;2022-09-12T02:17:23;8.30;99.90
18511;DHT22;9384;48.044;11.616;2022-09-12T02:19:54;8.30;99.90
18511;DHT22;9384;48.044;11.616;2022-09-12T02:22:24;8.30;99.90
18511;DHT22;9384;48.044;11.616;2022-09-12T02:24:56;8.30;99.90
18511;DHT22;9384;48.044;11.616;2022-09-12T02:27:27;8.30;99.90
18511;DHT22;9384;48.044;11.616;2022-09-12T02:29:56;8.30;99.90
18511;DHT22;9384;48.044;11.616;2022-09-12T02:32:29;8.30;99.90
18511;DHT22;9384;48.044;11.616;2022-09-12T02:35:00;8.20;99.90
18511;DHT22;9384;48.044;11.616;2022-09-12T02:37:40;8.30;99.90
18511;DHT22;9384;48.044;11.616;2022-09-12T02:40:09;8.20;99.90
18511;DHT22;9384;48.044;11.616;2022-09-12T02:42:36;8.20;99.90
18511;DHT22;9384;48.044;11.616;2022-09-12T02:45:04;8.20;99.90
18511;DHT22;9384;48.044;11.616;2022-09-12T02:47:36;8.30;99.90
18511;DHT22;9384;48.044;11.616;2022-09-12T02:50:05;8.20;99.90
18511;DHT22;9384;48.044;11.616;2022-09-12T02:52:34;8.20;99.90
18511;DHT22;9384;48.044;11.616;2022-09-12T02:55:08;8.10;99.90
18511;DHT22;9384;48.044;11.616;2022-09-12T02:57:35;8.10;99.90
18511;DHT22;9384;48.044;11.616;2022-09-12T03:00:04;8.20;99.90
18511;DHT22;9384;48.044;11.616;2022-09-12T03:02:45;8.10;99.90
18511;DHT22;9384;48.044;11.616;2022-09-12T03:05:24;8.10;99.90
18511;DHT22;9384;48.044;11.616;2022-09-12T03:08:21;8.10;99.90
18511;DHT22;9384;48.044;11.616;2022-09-12T03:11:08;8.00;99.90
18511;DHT22;9384;48.044;11.616;2022-09-12T03:13:43;7.90;99.90
18511;DHT22;9384;48.044;11.616;2022-09-12T03:16:18;7.90;99.90
18511;DHT22;9384;48.044;11.616;2022-09-12T03:18:56;7.90;99.90
18511;DHT22;9384;48.044;11.616;2022-09-12T03:21:29;7.90;99.90
18511;DHT22;9384;48.044;11.616;2022-09-12T03:24:04;7.80;99.90
18511;DHT22;9384;48.044;11.616;2022-09-12T03:26:38;7.80;99.90
18511;DHT22;9384;48.044;11.616;2022-09-12T03:29:07;7.80;99.90
18511;DHT22;9384;48.044;11.616;2022-09-12T03:31:36;7.80;99.90
18511;DHT22;9384;48.044;11.616;2022-09-12T03:34:05;7.70;99.90
18511;DHT22;9384;48.044;11.616;2022-09-12T03:36:37;7.70;99.90
18511;DHT22;9384;48.044;11.616;2022-09-12T03:39:05;7.70;99.90
18511;DHT22;9384;48.044;11.616;2022-09-12T03:41:32;7.70;99.90
18511;DHT22;9384;48.044;11.616;2022-09-12T03:43:59;7.60;99.90
18511;DHT22;9384;48.044;11.616;2022-09-12T03:46:26;7.50;99.90
18511;DHT22;9384;48.044;11.616;2022-09-12T03:48:53;7.50;99.90
18511;DHT22;9384;48.044;11.616;2022-09-12T03:51:21;7.50;99.90
18511;DHT22;9384;48.044;11.616;2022-09-12T03:53:48;7.50;99.90
18511;DHT22;9384;48.044;11.616;2022-09-12T03:56:15;7.50;99.90
18511;DHT22;9384;48.044;11.616;2022-09-12T03:58:42;7.50;99.90
18511;DHT22;9384;48.044;11.616;2022-09-12T04:01:11;7.50;99.90
18511;DHT22;9384;48.044;11.616;2022-09-12T04:03:38;7.50;99.90
18511;DHT22;9384;48.044;11.616;2022-09-12T04:06:07;7.40;99.90
18511;DHT22;9384;48.044;11.616;2022-09-12T04:08:35;7.40;99.90
18511;DHT22;9384;48.044;11.616;2022-09-12T04:11:03;7.40;99.90
18511;DHT22;9384;48.044;11.616;2022-09-12T04:13:30;7.40;99.90
18511;DHT22;9384;48.044;11.616;2022-09-12T04:15:57;7.40;99.90
18511;DHT22;9384;48.044;11.616;2022-09-12T04:18:24;7.40;99.90
18511;DHT22;9384;48.044;11.616;2022-09-12T04:20:52;7.30;99.90
18511;DHT22;9384;48.044;11.616;2022-09-12T04:23:19;7.30;99.90
18511;DHT22;9384;48.044;11.616;2022-09-12T04:25:53;7.30;99.90
18511;DHT22;9384;48.044;11.616;2022-09-12T04:28:21;7.30;99.90
18511;DHT22;9384;48.044;11.616;2022-09-12T04:30:48;7.30;99.90
18511;DHT22;9384;48.044;11.616;2022-09-12T04:33:15;7.30;99.90
18511;DHT22;9384;48.044;11.616;2022-09-12T04:35:43;7.40;99.90
18511;DHT22;9384;48.044;11.616;2022-09-12T04:38:10;7.30;99.90
18511;DHT22;9384;48.044;11.616;2022-09-12T04:40:37;7.30;99.90
18511;DHT22;9384;48.044;11.616;2022-09-12T04:43:05;7.20;99.90
18511;DHT22;9384;48.044;11.616;2022-09-12T04:45:34;7.30;99.90
18511;DHT22;9384;48.044;11.616;2022-09-12T04:48:01;7.30;99.90
18511;DHT22;9384;48.044;11.616;2022-09-12T04:50:28;7.30;99.90
18511;DHT22;9384;48.044;11.616;2022-09-12T04:52:55;7.30;99.90
18511;DHT22;9384;48.044;11.616;2022-09-12T04:55:22;7.30;99.90
18511;DHT22;9384;48.044;11.616;2022-09-12T04:57:50;7.30;99.90
18511;DHT22;9384;48.044;11.616;2022-09-12T05:00:19;7.30;99.90
18511;DHT22;9384;48.044;11.616;2022-09-12T05:02:46;7.40;99.90
18511;DHT22;9384;48.044;11.616;2022-09-12T05:05:13;7.40;99.90
18511;DHT22;9384;48.044;11.616;2022-09-12T05:07:40;7.30;99.90
18511;DHT22;9384;48.044;11.616;2022-09-12T05:10:08;7.40;99.90
18511;DHT22;9384;48.044;11.616;2022-09-12T05:12:36;7.40;99.90
18511;DHT22;9384;48.044;11.616;2022-09-12T05:15:04;7.40;99.90
18511;DHT22;9384;48.044;11.616;2022-09-12T05:17:33;7.40;99.90
18511;DHT22;9384;48.044;11.616;2022-09-12T05:20:00;7.50;99.90
18511;DHT22;9384;48.044;11.616;2022-09-12T05:22:27;7.50;99.90
18511;DHT22;9384;48.044;11.616;2022-09-12T05:24:53;7.50;99.90
18511;DHT22;9384;48.044;11.616;2022-09-12T05:27:20;7.40;99.90
18511;DHT22;9384;48.044;11.616;2022-09-12T05:29:47;7.50;99.90
18511;DHT22;9384;48.044;11.616;2022-09-12T05:32:14;7.50;99.90
18511;DHT22;9384;48.044;11.616;2022-09-12T05:34:42;7.50;99.90
18511;DHT22;9384;48.044;11.616;2022-09-12T05:37:09;7.60;99.90
18511;DHT22;9384;48.044;11.616;2022-09-12T05:39:37;7.70;99.90
18511;DHT22;9384;48.044;11.616;2022-09-12T05:42:04;7.70;99.90
18511;DHT22;9384;48.044;11.616;2022-09-12T05:44:31;7.80;99.90
18511;DHT22;9384;48.044;11.616;2022-09-12T05:46:58;7.80;99.90
18511;DHT22;9384;48.044;11.616;2022-09-12T05:49:25;7.90;99.90
18511;DHT22;9384;48.044;11.616;2022-09-12T05:51:54;8.00;99.90
18511;DHT22;9384;48.044;11.616;2022-09-12T05:54:21;8.10;99.90
18511;DHT22;9384;48.044;11.616;2022-09-12T05:56:48;8.20;99.90
18511;DHT22;9384;48.044;11.616;2022-09-12T05:59:16;8.30;99.90
18511;DHT22;9384;48.044;11.616;2022-09-12T06:01:43;8.50;99.90
18511;DHT22;9384;48.044;11.616;2022-09-12T06:04:11;8.60;99.90
18511;DHT22;9384;48.044;11.616;2022-09-12T06:06:40;8.70;99.90
18511;DHT22;9384;48.044;11.616;2022-09-12T06:09:11;8.70;99.90
18511;DHT22;9384;48.044;11.616;2022-09-12T06:11:39;8.90;99.90
18511;DHT22;9384;48.044;11.616;2022-09-12T06:14:07;8.90;99.90
18511;DHT22;9384;48.044;11.616;2022-09-12T06:16:34;9.00;99.90
18511;DHT22;9384;48.044;11.616;2022-09-12T06:19:04;9.20;99.90
18511;DHT22;9384;48.044;11.616;2022-09-12T06:21:32;9.30;99.90
18511;DHT22;9384;48.044;11.616;2022-09-12T06:24:00;9.40;99.90
18511;DHT22;9384;48.044;11.616;2022-09-12T06:26:28;9.50;99.90
18511;DHT22;9384;48.044;11.616;2022-09-12T06:28:58;9.60;99.90
18511;DHT22;9384;48.044;11.616;2022-09-12T06:31:26;9.70;99.90
18511;DHT22;9384;48.044;11.616;2022-09-12T06:33:55;9.80;99.90
18511;DHT22;9384;48.044;11.616;2022-09-12T06:36:24;9.90;99.90
18511;DHT22;9384;48.044;11.616;2022-09-12T06:38:56;10.10;99.90
18511;DHT22;9384;48.044;11.616;2022-09-12T06:41:23;10.20;99.90
18511;DHT22;9384;48.044;11.616;2022-09-12T06:43:53;10.30;99.90
18511;DHT22;9384;48.044;11.616;2022-09-12T06:46:20;10.40;99.90
18511;DHT22;9384;48.044;11.616;2022-09-12T06:48:47;10.50;99.90
18511;DHT22;9384;48.044;11.616;2022-09-12T06:51:16;10.70;99.90
18511;DHT22;9384;48.044;11.616;2022-09-12T06:53:44;10.80;99.90
18511;DHT22;9384;48.044;11.616;2022-09-12T06:56:12;10.90;99.90
18511;DHT22;9384;48.044;11.616;2022-09-12T06:58:40;11.00;99.90
18511;DHT22;9384;48.044;11.616;2022-09-12T07:01:09;11.10;99.90
18511;DHT22;9384;48.044;11.616;2022-09-12T07:03:37;11.30;99.90
18511;DHT22;9384;48.044;11.616;2022-09-12T07:06:05;11.40;99.90
18511;DHT22;9384;48.044;11.616;2022-09-12T07:08:33;11.50;99.90
18511;DHT22;9384;48.044;11.616;2022-09-12T07:11:08;11.60;99.90
18511;DHT22;9384;48.044;11.616;2022-09-12T07:13:35;11.80;99.90
18511;DHT22;9384;48.044;11.616;2022-09-12T07:16:03;11.90;99.90
18511;DHT22;9384;48.044;11.616;2022-09-12T07:18:31;11.90;99.90
18511;DHT22;9384;48.044;11.616;2022-09-12T07:20:59;12.00;99.90
18511;DHT22;9384;48.044;11.616;2022-09-12T07:23:26;12.10;99.90
18511;DHT22;9384;48.044;11.616;2022-09-12T07:25:54;12.30;99.90
18511;DHT22;9384;48.044;11.616;2022-09-12T07:28:22;12.30;99.90
18511;DHT22;9384;48.044;11.616;2022-09-12T07:30:49;12.50;99.90
18511;DHT22;9384;48.044;11.616;2022-09-12T07:33:18;12.50;99.90
18511;DHT22;9384;48.044;11.616;2022-09-12T08:12:51;12.70;99.90
18511;DHT22;9384;48.044;11.616;2022-09-12T08:39:56;14.60;99.90
